Time;durP1;ratioP1;P1;durP2;ratioP2;P2;SDS_P1;SDS_P2;PMS_P1;PMS_P2;Temp;Humidity;BMP_temperature;BMP_pressure;BME280_temperature;BME280_humidity;BME280_pressure;Samples;Min_cycle;Max_cycle;Signal;HPM_P1;HPM_P2
2021/09/14 00:00:52;;;;;;;0.73;0.50;;;23.70;59.30;;;;;;6249554;28;20021;-72
2021/09/14 00:03:52;;;;;;;0.50;0.40;;;23.70;59.20;;;;;;6267745;28;20025;-72
2021/09/14 00:06:53;;;;;;;0.50;0.43;;;23.70;59.30;;;;;;6249124;28;20031;-71
2021/09/14 00:09:55;;;;;;;0.57;0.40;;;23.70;59.30;;;;;;6267295;28;20025;-72
2021/09/14 00:12:55;;;;;;;1.00;0.60;;;23.70;59.20;;;;;;6267384;28;20013;-72
2021/09/14 00:15:56;;;;;;;0.65;0.50;;;23.70;59.20;;;;;;6241264;28;20044;-72
2021/09/14 00:18:57;;;;;;;0.40;0.40;;;23.70;59.20;;;;;;6244002;28;20045;-71
2021/09/14 00:21:57;;;;;;;0.40;0.40;;;23.70;59.20;;;;;;6267084;28;20037;-71
2021/09/14 00:24:58;;;;;;;0.57;0.35;;;23.70;59.30;;;;;;6266831;28;20033;-71
2021/09/14 00:27:59;;;;;;;0.70;0.50;;;23.70;59.30;;;;;;6267332;28;20029;-71
2021/09/14 00:30:59;;;;;;;0.88;0.57;;;23.70;59.20;;;;;;6266962;28;20095;-71
2021/09/14 00:34:00;;;;;;;0.80;0.50;;;23.70;59.30;;;;;;6249229;28;20025;-72
2021/09/14 00:37:00;;;;;;;0.65;0.50;;;23.70;59.30;;;;;;6266667;28;20035;-71
2021/09/14 00:40:01;;;;;;;0.50;0.50;;;23.70;59.20;;;;;;6248624;28;20049;-72
2021/09/14 00:43:02;;;;;;;0.40;0.40;;;23.70;59.20;;;;;;6266684;28;20025;-71
2021/09/14 00:46:02;;;;;;;0.50;0.40;;;23.70;59.20;;;;;;6266759;28;20079;-72
2021/09/14 00:49:03;;;;;;;0.45;0.40;;;23.70;59.20;;;;;;6248766;28;20075;-71
2021/09/14 00:52:04;;;;;;;0.60;0.47;;;23.70;59.20;;;;;;6226128;28;20462;-71
2021/09/14 00:55:05;;;;;;;0.65;0.43;;;23.70;59.30;;;;;;6247145;28;20028;-71
2021/09/14 00:58:06;;;;;;;0.75;0.43;;;23.70;59.30;;;;;;6266620;28;20227;-71
2021/09/14 01:01:06;;;;;;;0.80;0.40;;;23.70;59.20;;;;;;6266073;28;20060;-71
2021/09/14 01:04:07;;;;;;;0.60;0.60;;;23.70;59.20;;;;;;6248462;28;20124;-72
2021/09/14 01:07:09;;;;;;;0.82;0.60;;;23.70;59.20;;;;;;6248304;28;20021;-72
2021/09/14 01:10:13;;;;;;;0.60;0.45;;;23.70;59.30;;;;;;6266214;28;20037;-72
2021/09/14 01:13:14;;;;;;;0.40;0.40;;;23.70;59.20;;;;;;6248336;28;20060;-71
2021/09/14 01:16:15;;;;;;;0.88;0.50;;;23.70;59.20;;;;;;6265821;28;20390;-71
2021/09/14 01:19:16;;;;;;;0.65;0.60;;;23.70;59.20;;;;;;6265458;28;20056;-71
2021/09/14 01:22:16;;;;;;;0.70;0.50;;;23.70;60.00;;;;;;6266007;28;20021;-72
2021/09/14 01:25:19;;;;;;;0.45;0.40;;;23.70;59.20;;;;;;6265610;28;20049;-71
2021/09/14 01:28:20;;;;;;;0.30;0.30;;;23.70;59.30;;;;;;6266182;28;20025;-72
2021/09/14 01:31:21;;;;;;;4.47;0.60;;;23.70;59.20;;;;;;6265662;28;20021;-71
2021/09/14 01:34:21;;;;;;;0.57;0.50;;;23.70;59.30;;;;;;6266411;28;20018;-71
2021/09/14 01:37:22;;;;;;;0.85;0.50;;;23.70;59.20;;;;;;6265896;28;20029;-71
2021/09/14 01:40:24;;;;;;;1.00;0.70;;;23.70;59.30;;;;;;6247547;28;20496;-71
2021/09/14 01:43:25;;;;;;;0.63;0.40;;;23.70;59.20;;;;;;6247769;28;20025;-71
2021/09/14 01:46:25;;;;;;;0.40;0.40;;;23.70;59.20;;;;;;6265868;28;20032;-71
2021/09/14 01:49:26;;;;;;;0.40;0.40;;;23.70;59.20;;;;;;6265601;28;20036;-71
2021/09/14 01:52:28;;;;;;;0.50;0.50;;;23.70;59.30;;;;;;6247474;28;20029;-71
2021/09/14 01:55:29;;;;;;;0.57;0.47;;;23.70;59.20;;;;;;6247587;28;20116;-71
2021/09/14 01:58:30;;;;;;;0.52;0.50;;;23.70;59.20;;;;;;6239161;28;20033;-71
2021/09/14 02:01:35;;;;;;;0.73;0.60;;;23.70;59.20;;;;;;6245818;28;20025;-72
2021/09/14 02:04:45;;;;;;;0.80;0.63;;;23.70;59.20;;;;;;6247739;28;20433;-72
2021/09/14 02:08:04;;;;;;;0.90;0.63;;;23.70;59.20;;;;;;6239536;28;20068;-73
2021/09/14 02:24:37;;;;;;;0.50;0.50;;;23.70;59.20;;;;;;6265440;28;20029;-72
2021/09/14 02:44:04;;;;;;;0.60;0.40;;;23.70;59.20;;;;;;6270064;28;20035;-71
2021/09/14 03:00:09;;;;;;;0.93;0.50;;;23.70;59.20;;;;;;6269159;28;20214;-71
2021/09/14 03:03:09;;;;;;;0.90;0.60;;;23.70;59.20;;;;;;6251290;28;20024;-71
2021/09/14 03:06:11;;;;;;;0.60;0.52;;;23.70;59.20;;;;;;6269594;28;20431;-72
2021/09/14 03:09:11;;;;;;;0.45;0.45;;;23.70;59.20;;;;;;6251118;28;20029;-72
2021/09/14 03:12:12;;;;;;;0.60;0.50;;;23.70;59.30;;;;;;6251254;28;20025;-72
2021/09/14 03:15:12;;;;;;;0.57;0.50;;;23.70;59.20;;;;;;6268890;28;20029;-72
2021/09/14 03:18:13;;;;;;;0.70;0.57;;;23.70;59.20;;;;;;6251256;28;20021;-71
2021/09/14 03:21:14;;;;;;;0.93;0.77;;;23.70;59.20;;;;;;6268711;28;20052;-71
2021/09/14 03:24:15;;;;;;;0.90;0.70;;;23.70;59.20;;;;;;6242434;28;20021;-72
2021/09/14 03:27:16;;;;;;;0.88;0.47;;;23.70;59.30;;;;;;6244476;28;20076;-71
2021/09/14 03:30:17;;;;;;;1.48;0.63;;;23.70;59.30;;;;;;6255741;28;20033;-72
2021/09/14 03:33:18;;;;;;;0.90;0.52;;;23.70;59.20;;;;;;6247725;28;20264;-72
2021/09/14 03:36:20;;;;;;;0.50;0.50;;;23.70;59.30;;;;;;6250300;28;20457;-71
2021/09/14 03:39:20;;;;;;;1.90;0.52;;;23.70;59.20;;;;;;6268357;28;20108;-71
2021/09/14 03:42:21;;;;;;;0.50;0.50;;;23.70;59.20;;;;;;6267091;28;20041;-71
2021/09/14 03:45:21;;;;;;;0.60;0.57;;;23.70;59.20;;;;;;6268253;28;20079;-72
2021/09/14 03:48:22;;;;;;;0.40;0.40;;;23.70;59.20;;;;;;6267767;28;20025;-71
2021/09/14 03:51:23;;;;;;;0.63;0.60;;;23.70;59.20;;;;;;6268312;28;20649;-71
2021/09/14 03:54:23;;;;;;;0.45;0.40;;;23.70;59.20;;;;;;6268103;28;20036;-71
2021/09/14 03:57:24;;;;;;;0.80;0.55;;;23.70;59.20;;;;;;6267732;28;20068;-72
2021/09/14 04:00:40;;;;;;;0.52;0.52;;;23.70;59.20;;;;;;6249427;28;20029;-71
2021/09/14 04:03:43;;;;;;;1.00;0.70;;;23.70;59.20;;;;;;6249569;28;20017;-72
2021/09/14 04:06:58;;;;;;;0.70;0.60;;;23.70;59.20;;;;;;6257633;28;20029;-72
2021/09/14 04:09:59;;;;;;;0.83;0.50;;;23.70;59.20;;;;;;6252170;28;20028;-72
2021/09/14 04:13:00;;;;;;;0.50;0.50;;;23.70;59.20;;;;;;6249680;28;20272;-72
2021/09/14 04:16:00;;;;;;;0.60;0.40;;;23.70;59.20;;;;;;6267644;28;20548;-71
2021/09/14 04:19:01;;;;;;;0.47;0.47;;;23.60;59.10;;;;;;6267499;28;20023;-71
2021/09/14 04:22:03;;;;;;;0.60;0.52;;;23.70;59.20;;;;;;6249743;28;20020;-72
2021/09/14 04:25:03;;;;;;;0.40;0.40;;;23.70;59.20;;;;;;6267506;28;20021;-71
2021/09/14 04:28:04;;;;;;;0.57;0.50;;;23.70;59.20;;;;;;6249216;28;20017;-72
2021/09/14 04:31:05;;;;;;;0.60;0.60;;;23.70;59.20;;;;;;6267044;28;20036;-72
2021/09/14 04:34:05;;;;;;;0.68;0.60;;;23.70;59.10;;;;;;6249327;28;20540;-71
2021/09/14 04:37:06;;;;;;;1.38;0.77;;;23.70;59.20;;;;;;6266924;28;20075;-71
2021/09/14 04:40:07;;;;;;;0.60;0.40;;;23.70;59.20;;;;;;6267263;28;20045;-72
2021/09/14 04:43:08;;;;;;;0.90;0.60;;;23.70;59.20;;;;;;6266939;28;20033;-72
2021/09/14 04:46:08;;;;;;;0.82;0.60;;;23.70;59.20;;;;;;6266941;28;20032;-71
2021/09/14 04:49:09;;;;;;;0.55;0.50;;;23.70;59.20;;;;;;6266535;28;20057;-71
2021/09/14 04:52:09;;;;;;;0.63;0.60;;;23.70;59.20;;;;;;6266794;28;20111;-71
2021/09/14 04:55:10;;;;;;;0.73;0.57;;;23.70;59.20;;;;;;6266409;28;20036;-71
2021/09/14 04:58:11;;;;;;;0.98;0.60;;;23.70;59.10;;;;;;6266844;28;20336;-71
2021/09/14 05:01:14;;;;;;;0.88;0.60;;;23.70;59.20;;;;;;6262166;28;20044;-71
2021/09/14 05:04:16;;;;;;;0.57;0.57;;;23.70;59.20;;;;;;6227925;28;20544;-72
2021/09/14 05:07:16;;;;;;;0.60;0.60;;;23.70;59.20;;;;;;6266685;28;20047;-71
2021/09/14 05:10:17;;;;;;;0.45;0.40;;;23.70;59.20;;;;;;6266612;28;20490;-71
2021/09/14 05:13:18;;;;;;;0.70;0.50;;;23.70;59.20;;;;;;6266822;28;20029;-72
2021/09/14 05:16:18;;;;;;;0.82;0.65;;;23.70;59.20;;;;;;6247869;28;20017;-72
2021/09/14 05:19:30;;;;;;;0.70;0.50;;;23.60;59.10;;;;;;6266091;28;20037;-72
2021/09/14 05:22:33;;;;;;;0.90;0.60;;;23.60;59.10;;;;;;6266271;28;20021;-71
2021/09/14 05:25:33;;;;;;;0.60;0.60;;;23.70;59.20;;;;;;6248601;28;20028;-72
2021/09/14 05:28:37;;;;;;;0.70;0.70;;;23.70;59.30;;;;;;6266222;28;20028;-73
2021/09/14 05:31:38;;;;;;;0.95;0.85;;;23.70;59.10;;;;;;6248985;28;20022;-71
2021/09/14 05:34:38;;;;;;;1.00;0.65;;;23.70;59.20;;;;;;6242315;28;20445;-71
2021/09/14 05:37:39;;;;;;;1.27;0.70;;;23.70;59.20;;;;;;6291199;28;20029;-70
2021/09/14 05:40:41;;;;;;;0.63;0.60;;;23.70;59.10;;;;;;6273594;28;20047;-71
2021/09/14 05:43:41;;;;;;;0.98;0.73;;;23.70;59.30;;;;;;6291211;28;20024;-70
2021/09/14 05:46:42;;;;;;;1.80;0.60;;;23.60;59.10;;;;;;6275976;28;20450;-70
2021/09/14 05:49:43;;;;;;;0.80;0.68;;;23.70;59.20;;;;;;6267134;28;20017;-71
2021/09/14 05:52:43;;;;;;;1.70;0.65;;;23.60;59.10;;;;;;6266283;28;20033;-71
2021/09/14 05:55:44;;;;;;;2.00;0.70;;;23.70;59.30;;;;;;6248705;28;20114;-71
2021/09/14 05:58:45;;;;;;;0.85;0.60;;;23.70;59.30;;;;;;6249023;28;20025;-71
2021/09/14 06:01:46;;;;;;;1.55;0.70;;;23.70;59.20;;;;;;6251458;28;20481;-71
2021/09/14 06:04:46;;;;;;;1.50;0.95;;;23.70;59.20;;;;;;6251239;28;20029;-71
2021/09/14 06:07:47;;;;;;;2.08;1.02;;;23.70;59.30;;;;;;6274285;28;20028;-71
2021/09/14 06:10:48;;;;;;;0.50;0.50;;;23.70;59.20;;;;;;6256263;28;20037;-71
2021/09/14 06:13:48;;;;;;;1.30;0.70;;;23.70;59.30;;;;;;6274567;28;20385;-71
2021/09/14 06:16:49;;;;;;;0.73;0.70;;;23.70;59.30;;;;;;6274061;28;20116;-71
2021/09/14 06:19:49;;;;;;;1.52;0.63;;;23.70;59.30;;;;;;6256455;28;20033;-71
2021/09/14 06:22:50;;;;;;;1.33;0.80;;;23.70;59.30;;;;;;6255882;28;20057;-71
2021/09/14 06:25:50;;;;;;;4.03;0.90;;;23.70;59.30;;;;;;6243611;28;20479;-71
2021/09/14 06:28:51;;;;;;;0.73;0.73;;;23.70;59.30;;;;;;6249375;28;20238;-71
2021/09/14 06:31:52;;;;;;;0.88;0.65;;;23.70;59.30;;;;;;6259512;28;20501;-71
2021/09/14 06:34:53;;;;;;;1.60;0.70;;;23.70;59.30;;;;;;6273893;28;20036;-71
2021/09/14 06:37:53;;;;;;;1.65;0.90;;;23.70;60.00;;;;;;6256206;28;20086;-71
2021/09/14 06:40:54;;;;;;;0.65;0.60;;;23.70;59.30;;;;;;6273194;28;20545;-71
2021/09/14 06:43:54;;;;;;;2.33;0.90;;;23.70;59.30;;;;;;6273970;28;20455;-71
2021/09/14 06:46:55;;;;;;;0.95;0.68;;;23.70;59.30;;;;;;6273442;28;20099;-71
2021/09/14 06:49:55;;;;;;;1.92;0.70;;;23.70;59.50;;;;;;6273159;28;20088;-71
2021/09/14 06:52:56;;;;;;;2.08;0.80;;;23.70;59.50;;;;;;6272920;28;20025;-71
2021/09/14 06:55:57;;;;;;;1.17;0.85;;;23.60;59.50;;;;;;6273617;28;20092;-71
2021/09/14 06:58:57;;;;;;;1.30;0.77;;;23.60;59.50;;;;;;6273130;28;20017;-71
2021/09/14 07:01:58;;;;;;;1.98;0.73;;;23.60;59.50;;;;;;6273010;28;20025;-71
2021/09/14 07:04:59;;;;;;;1.98;0.63;;;23.60;59.60;;;;;;6272779;28;20393;-71
2021/09/14 07:08:00;;;;;;;1.05;0.85;;;23.70;59.70;;;;;;6254670;28;20450;-71
2021/09/14 07:11:00;;;;;;;1.50;0.60;;;23.70;59.70;;;;;;6272589;28;20025;-71
2021/09/14 07:14:02;;;;;;;1.02;0.82;;;23.60;59.50;;;;;;6273267;28;20021;-71
2021/09/14 07:17:02;;;;;;;1.20;0.80;;;23.60;59.60;;;;;;6272613;28;20036;-71
2021/09/14 07:20:06;;;;;;;0.80;0.63;;;23.60;59.60;;;;;;6272588;28;20025;-71
2021/09/14 07:23:07;;;;;;;4.07;0.80;;;23.60;59.70;;;;;;6254926;28;20028;-71
2021/09/14 07:26:08;;;;;;;1.08;0.90;;;23.60;59.70;;;;;;6272710;28;20585;-71
2021/09/14 07:29:08;;;;;;;0.90;0.70;;;23.60;60.50;;;;;;6254835;28;20028;-70
2021/09/14 07:32:09;;;;;;;0.65;0.60;;;23.60;59.70;;;;;;6272386;28;20033;-71
2021/09/14 07:35:10;;;;;;;1.00;0.65;;;23.60;59.80;;;;;;6272517;28;20043;-71
2021/09/14 07:38:11;;;;;;;3.10;0.70;;;23.60;59.80;;;;;;6272805;28;20017;-71
2021/09/14 07:41:12;;;;;;;0.60;0.60;;;23.60;59.80;;;;;;6274771;28;20051;-71
2021/09/14 07:44:12;;;;;;;1.20;0.70;;;23.60;59.80;;;;;;6279047;28;20013;-70
2021/09/14 07:47:13;;;;;;;3.08;0.60;;;23.60;59.80;;;;;;6277198;28;20091;-71
2021/09/14 07:50:14;;;;;;;1.13;0.90;;;23.60;59.70;;;;;;6253988;28;20029;-71
2021/09/14 07:53:15;;;;;;;1.23;0.70;;;23.60;59.70;;;;;;6271927;28;20117;-71
2021/09/14 07:56:15;;;;;;;2.15;0.70;;;23.70;59.70;;;;;;6235739;28;20029;-70
2021/09/14 07:59:16;;;;;;;2.38;0.88;;;23.70;59.80;;;;;;6257932;28;20017;-71
2021/09/14 08:02:16;;;;;;;1.45;0.70;;;23.70;59.70;;;;;;6245148;28;20091;-71
2021/09/14 08:05:17;;;;;;;1.23;0.77;;;23.70;59.70;;;;;;6247797;28;20022;-71
2021/09/14 08:08:17;;;;;;;2.15;0.70;;;23.70;59.70;;;;;;6253375;28;20029;-70
2021/09/14 08:11:18;;;;;;;0.93;0.70;;;23.70;59.70;;;;;;6227685;28;20108;-71
2021/09/14 08:14:19;;;;;;;2.92;1.10;;;23.70;59.70;;;;;;6229178;28;20029;-70
2021/09/14 08:17:19;;;;;;;5.32;0.82;;;23.70;59.70;;;;;;6270407;28;20025;-71
2021/09/14 08:20:20;;;;;;;1.13;0.80;;;23.70;59.80;;;;;;6270266;28;20025;-71
2021/09/14 08:23:21;;;;;;;2.40;0.90;;;23.70;59.80;;;;;;6271148;28;20070;-71
2021/09/14 08:26:22;;;;;;;1.80;0.60;;;23.70;59.80;;;;;;6252380;28;20021;-71
2021/09/14 08:29:22;;;;;;;1.55;0.88;;;23.70;59.80;;;;;;6252375;28;20548;-71
2021/09/14 08:32:23;;;;;;;4.70;0.82;;;23.70;59.70;;;;;;6270052;28;20039;-71
2021/09/14 08:35:24;;;;;;;2.13;1.00;;;23.70;59.70;;;;;;6270796;28;20071;-70
2021/09/14 08:38:24;;;;;;;2.50;1.00;;;23.70;59.70;;;;;;6270849;28;20111;-70
2021/09/14 08:41:25;;;;;;;4.97;1.00;;;23.70;59.60;;;;;;6270197;28;20068;-71
2021/09/14 08:44:26;;;;;;;4.10;1.13;;;23.70;59.70;;;;;;6253110;28;20029;-71
2021/09/14 08:47:27;;;;;;;3.30;0.80;;;23.70;59.70;;;;;;6252683;28;20498;-71
2021/09/14 08:50:28;;;;;;;2.20;0.93;;;23.70;59.70;;;;;;6270338;28;20032;-71
2021/09/14 08:53:28;;;;;;;1.30;0.90;;;23.70;59.70;;;;;;6270361;28;20025;-71
2021/09/14 08:56:31;;;;;;;1.95;0.80;;;23.70;59.70;;;;;;6252522;28;20379;-71
2021/09/14 08:59:33;;;;;;;2.03;0.80;;;23.70;59.70;;;;;;6270813;28;20438;-71
2021/09/14 09:02:33;;;;;;;4.93;0.90;;;23.70;59.70;;;;;;6251941;28;20375;-71
2021/09/14 09:05:39;;;;;;;4.43;0.95;;;23.70;59.70;;;;;;6266684;28;20032;-71
2021/09/14 09:08:40;;;;;;;1.55;0.82;;;23.70;59.70;;;;;;6252165;28;20029;-71
2021/09/14 09:12:02;;;;;;;1.75;0.82;;;23.70;59.70;;;;;;6269018;28;20036;-71
2021/09/14 09:15:03;;;;;;;1.92;1.00;;;23.70;59.70;;;;;;6270240;28;20021;-71
2021/09/14 09:18:05;;;;;;;2.90;1.08;;;23.70;59.80;;;;;;6268547;28;20082;-71
2021/09/14 09:21:05;;;;;;;2.78;1.10;;;23.70;59.80;;;;;;6250156;28;20032;-71
2021/09/14 09:24:09;;;;;;;2.45;0.85;;;23.70;59.80;;;;;;6251292;28;20036;-71
2021/09/14 09:27:16;;;;;;;1.50;0.90;;;23.70;59.80;;;;;;6252387;28;20035;-70
2021/09/14 09:30:21;;;;;;;5.07;1.02;;;23.70;59.80;;;;;;6268745;28;20532;-72
2021/09/14 09:33:27;;;;;;;3.30;1.00;;;23.70;59.80;;;;;;6250082;28;20036;-72
2021/09/14 09:36:34;;;;;;;1.52;0.80;;;23.70;59.80;;;;;;6266839;28;20567;-72
2021/09/14 09:39:37;;;;;;;2.15;0.95;;;23.70;59.80;;;;;;6240196;28;20037;-72
2021/09/14 09:42:38;;;;;;;0.85;0.60;;;23.70;59.80;;;;;;6246539;28;20040;-71
2021/09/14 09:45:46;;;;;;;1.05;0.68;;;23.70;59.80;;;;;;6249268;28;20489;-72
2021/09/14 09:48:48;;;;;;;1.00;0.52;;;23.70;59.80;;;;;;6249339;28;20048;-71
2021/09/14 09:51:51;;;;;;;0.95;0.60;;;23.70;59.80;;;;;;6249159;28;20439;-74
2021/09/14 09:54:51;;;;;;;1.42;0.70;;;23.70;59.90;;;;;;6262621;28;20029;-72
2021/09/14 09:57:52;;;;;;;1.15;0.80;;;23.70;59.80;;;;;;6267352;28;20048;-73
2021/09/14 10:01:15;;;;;;;2.78;0.80;;;23.70;59.80;;;;;;6267052;28;20025;-72
2021/09/14 10:04:21;;;;;;;1.10;0.70;;;23.70;59.80;;;;;;6280199;28;20024;-72
2021/09/14 10:07:33;;;;;;;3.22;0.80;;;23.70;59.90;;;;;;6243598;28;20021;-72
2021/09/14 10:10:35;;;;;;;1.75;0.85;;;23.70;60.00;;;;;;6237871;28;20410;-72
2021/09/14 10:13:41;;;;;;;1.92;0.80;;;23.70;60.00;;;;;;6267053;28;20478;-72
2021/09/14 10:16:46;;;;;;;3.63;0.68;;;23.70;60.00;;;;;;6243606;28;20086;-72
2021/09/14 10:19:47;;;;;;;2.47;0.85;;;23.70;60.00;;;;;;6256681;28;20033;-72
2021/09/14 10:23:06;;;;;;;2.33;0.77;;;23.70;60.00;;;;;;6257903;28;20025;-73
2021/09/14 10:26:10;;;;;;;1.70;0.90;;;23.70;60.10;;;;;;6248869;28;20111;-72
2021/09/14 10:29:13;;;;;;;2.00;0.85;;;23.70;60.20;;;;;;6261359;28;20122;-71
2021/09/14 10:32:14;;;;;;;2.17;0.70;;;23.70;60.20;;;;;;6240485;28;20112;-71
2021/09/14 10:35:26;;;;;;;1.88;0.73;;;23.70;60.20;;;;;;6247094;28;20108;-72
2021/09/14 10:38:28;;;;;;;1.02;0.70;;;23.70;60.10;;;;;;6248179;28;20486;-72
2021/09/14 10:41:36;;;;;;;3.53;0.93;;;23.70;60.10;;;;;;6266654;28;20405;-75
2021/09/14 10:44:38;;;;;;;9.07;0.85;;;23.70;60.20;;;;;;6248869;28;20017;-71
2021/09/14 10:47:41;;;;;;;2.38;0.80;;;23.70;60.40;;;;;;6266277;28;20053;-71
2021/09/14 10:50:41;;;;;;;7.55;0.88;;;23.70;60.20;;;;;;6255150;28;20477;-72
2021/09/14 10:53:56;;;;;;;3.97;0.70;;;23.70;60.20;;;;;;6270461;28;20067;-72
2021/09/14 10:56:59;;;;;;;6.40;1.20;;;23.70;60.20;;;;;;6246252;28;20035;-72
2021/09/14 11:00:00;;;;;;;2.47;1.00;;;23.70;60.10;;;;;;6252279;28;20029;-72
2021/09/14 11:03:04;;;;;;;2.60;0.80;;;23.70;60.10;;;;;;6244951;28;20541;-71
2021/09/14 11:06:08;;;;;;;1.58;0.60;;;23.70;60.00;;;;;;6272455;28;20044;-71
2021/09/14 11:09:08;;;;;;;1.27;0.70;;;23.70;60.00;;;;;;6251765;28;20029;-72
2021/09/14 11:12:21;;;;;;;4.20;1.13;;;23.70;59.90;;;;;;6269501;28;20190;-72
2021/09/14 11:15:22;;;;;;;5.93;1.35;;;23.80;60.00;;;;;;6252462;28;20036;-72
2021/09/14 11:18:24;;;;;;;3.85;0.85;;;23.80;60.00;;;;;;6269932;28;20537;-72
2021/09/14 11:21:25;;;;;;;7.32;1.27;;;23.70;59.80;;;;;;6252120;28;20039;-72
2021/09/14 11:24:25;;;;;;;4.60;1.00;;;23.70;59.80;;;;;;6251125;28;20017;-72
2021/09/14 11:27:27;;;;;;;4.55;1.13;;;23.70;59.80;;;;;;6272471;28;20021;-72
2021/09/14 11:30:30;;;;;;;2.53;1.00;;;23.70;59.80;;;;;;6253574;28;20031;-72
2021/09/14 11:33:31;;;;;;;4.38;1.17;;;23.70;59.80;;;;;;6255390;28;20032;-72
2021/09/14 11:36:32;;;;;;;2.65;0.90;;;23.70;59.90;;;;;;6265372;28;20025;-72
2021/09/14 11:39:37;;;;;;;3.47;1.13;;;23.70;59.90;;;;;;6268468;28;20455;-72
2021/09/14 11:42:37;;;;;;;2.20;0.80;;;23.70;59.90;;;;;;6252108;28;20045;-72
2021/09/14 11:45:38;;;;;;;3.40;1.25;;;23.70;59.90;;;;;;6270289;28;20025;-72
2021/09/14 11:48:39;;;;;;;6.25;1.25;;;23.70;59.90;;;;;;6252436;28;20191;-72
2021/09/14 11:51:41;;;;;;;5.03;0.80;;;23.70;59.90;;;;;;6263964;28;20029;-71
2021/09/14 11:54:44;;;;;;;4.70;0.88;;;23.70;60.00;;;;;;6270908;28;20024;-71
2021/09/14 11:57:54;;;;;;;1.65;0.80;;;23.70;60.00;;;;;;6270408;28;20021;-71
2021/09/14 12:00:57;;;;;;;5.28;1.13;;;23.70;60.00;;;;;;6252410;28;20025;-72
2021/09/14 12:03:58;;;;;;;2.75;0.93;;;23.70;60.00;;;;;;6269161;28;20100;-71
2021/09/14 12:06:59;;;;;;;4.68;1.10;;;23.70;60.00;;;;;;6266216;28;20122;-71
2021/09/14 12:10:04;;;;;;;3.38;0.90;;;23.70;60.00;;;;;;6269119;28;20025;-71
2021/09/14 12:13:14;;;;;;;3.03;1.02;;;23.70;59.90;;;;;;6252445;28;20036;-71
2021/09/14 12:16:25;;;;;;;3.72;1.10;;;23.70;59.90;;;;;;6251982;28;20453;-71
2021/09/14 12:19:26;;;;;;;1.25;0.90;;;23.70;59.90;;;;;;6253694;28;20091;-71
2021/09/14 12:22:33;;;;;;;2.00;1.02;;;23.70;60.00;;;;;;6268518;28;20116;-71
2021/09/14 12:25:35;;;;;;;2.17;0.80;;;23.70;59.90;;;;;;6253717;28;20163;-71
2021/09/14 12:28:37;;;;;;;1.67;0.95;;;23.70;59.90;;;;;;6270782;28;20048;-71
2021/09/14 12:31:39;;;;;;;1.50;1.10;;;23.70;59.90;;;;;;6271309;28;20029;-71
2021/09/14 12:34:40;;;;;;;1.90;0.88;;;23.70;59.90;;;;;;6272011;28;20048;-72
2021/09/14 12:37:40;;;;;;;1.50;0.82;;;23.70;59.90;;;;;;6271558;28;20102;-73
2021/09/14 12:40:41;;;;;;;1.65;0.63;;;23.70;59.90;;;;;;6253083;28;20041;-72
2021/09/14 12:43:49;;;;;;;2.22;0.90;;;23.70;59.90;;;;;;6253395;28;20482;-72
2021/09/14 12:46:55;;;;;;;1.88;0.98;;;23.70;59.90;;;;;;6271264;28;20060;-72
2021/09/14 12:49:56;;;;;;;4.10;0.80;;;23.70;59.90;;;;;;6271151;28;20021;-72
2021/09/14 12:52:58;;;;;;;2.63;0.80;;;23.70;59.90;;;;;;6270971;28;20486;-71
2021/09/14 12:55:59;;;;;;;2.83;0.85;;;23.70;59.90;;;;;;6269701;28;20032;-73
2021/09/14 12:59:00;;;;;;;3.05;1.02;;;23.70;59.90;;;;;;6253789;28;20021;-72
2021/09/14 13:02:01;;;;;;;1.85;0.80;;;23.70;60.00;;;;;;6270913;28;20036;-72
2021/09/14 13:05:07;;;;;;;0.93;0.70;;;23.70;60.00;;;;;;6270472;28;20025;-72
2021/09/14 13:08:10;;;;;;;1.33;0.80;;;23.70;60.00;;;;;;6269144;28;20088;-72
2021/09/14 13:11:10;;;;;;;0.80;0.60;;;23.70;60.00;;;;;;6268112;28;20043;-73
2021/09/14 13:17:32;;;;;;;3.42;1.02;;;23.70;60.00;;;;;;6268151;28;20025;-73
2021/09/14 13:20:32;;;;;;;2.53;1.00;;;23.70;60.00;;;;;;6250592;28;20017;-72
2021/09/14 13:23:34;;;;;;;1.92;0.70;;;23.70;60.00;;;;;;6268977;28;20481;-72
2021/09/14 13:26:34;;;;;;;1.90;0.82;;;23.70;60.00;;;;;;6250578;28;20035;-71
2021/09/14 13:29:35;;;;;;;1.48;0.90;;;23.70;60.00;;;;;;6267805;28;20474;-71
2021/09/14 13:32:35;;;;;;;1.92;0.82;;;23.70;60.00;;;;;;6267958;28;20044;-71
2021/09/14 13:35:36;;;;;;;3.25;0.80;;;23.70;60.00;;;;;;6250250;28;20039;-71
2021/09/14 13:38:37;;;;;;;1.58;0.80;;;23.70;60.00;;;;;;6250340;28;20025;-71
2021/09/14 13:41:42;;;;;;;1.25;0.90;;;23.70;59.90;;;;;;6262633;28;20052;-71
2021/09/14 13:47:52;;;;;;;3.00;1.00;;;23.70;60.70;;;;;;6268220;28;20421;-71
2021/09/14 13:50:53;;;;;;;2.58;0.90;;;23.70;59.80;;;;;;6250425;28;20036;-72
2021/09/14 13:53:54;;;;;;;1.77;0.85;;;23.70;59.80;;;;;;6267910;28;20029;-72
2021/09/14 13:56:54;;;;;;;2.38;1.02;;;23.70;59.70;;;;;;6246470;28;20037;-72
2021/09/14 13:59:55;;;;;;;2.17;1.10;;;23.70;59.70;;;;;;6267100;28;20474;-71
2021/09/14 14:02:55;;;;;;;2.33;0.93;;;23.70;59.70;;;;;;6249303;28;20021;-72
2021/09/14 14:05:57;;;;;;;2.00;1.00;;;23.70;59.70;;;;;;6246729;28;20394;-71
2021/09/14 14:08:58;;;;;;;4.47;1.90;;;23.70;59.70;;;;;;6252493;28;20032;-71
2021/09/14 14:11:59;;;;;;;1.30;0.95;;;23.70;59.60;;;;;;6269391;28;20037;-72
2021/09/14 14:15:01;;;;;;;2.10;0.90;;;23.70;59.60;;;;;;6249910;28;20028;-71
2021/09/14 14:18:01;;;;;;;2.25;1.17;;;23.70;59.60;;;;;;6244935;28;20025;-72
2021/09/14 14:21:02;;;;;;;3.83;1.25;;;23.70;59.60;;;;;;6266833;28;20044;-71
2021/09/14 14:24:03;;;;;;;1.08;0.90;;;23.70;59.60;;;;;;6266669;28;20021;-71
2021/09/14 14:27:04;;;;;;;1.52;0.75;;;23.70;59.70;;;;;;6268739;28;20073;-71
2021/09/14 14:30:05;;;;;;;1.88;0.90;;;23.70;59.70;;;;;;6253664;28;20037;-72
2021/09/14 14:33:06;;;;;;;0.95;0.80;;;23.70;59.70;;;;;;6253580;28;20035;-71
2021/09/14 14:36:07;;;;;;;0.70;0.70;;;23.70;59.70;;;;;;6253269;28;20033;-72
2021/09/14 14:39:08;;;;;;;1.42;0.73;;;23.70;59.70;;;;;;6272841;28;20021;-72
2021/09/14 14:42:09;;;;;;;1.83;0.90;;;23.70;59.70;;;;;;6251991;28;20369;-72
2021/09/14 14:45:10;;;;;;;2.05;0.98;;;23.70;59.70;;;;;;6241589;28;20060;-72
2021/09/14 14:48:10;;;;;;;4.88;1.52;;;23.70;59.70;;;;;;6270886;28;20025;-72
2021/09/14 14:51:11;;;;;;;1.90;0.90;;;23.70;59.80;;;;;;6252848;28;20083;-73
2021/09/14 14:54:12;;;;;;;4.15;1.05;;;23.70;59.70;;;;;;6271013;28;20510;-72
2021/09/14 14:57:12;;;;;;;1.38;0.88;;;23.70;59.70;;;;;;6271937;28;20485;-72
2021/09/14 15:00:14;;;;;;;3.17;1.05;;;23.70;59.70;;;;;;6252720;28;20167;-72
2021/09/14 15:03:15;;;;;;;1.35;0.90;;;23.70;59.70;;;;;;6272178;28;20029;-71
2021/09/14 15:06:16;;;;;;;1.33;0.85;;;23.70;59.70;;;;;;6268625;28;20425;-72
2021/09/14 15:09:19;;;;;;;2.30;1.10;;;23.70;59.70;;;;;;6267702;28;20044;-71
2021/09/14 15:12:20;;;;;;;1.63;1.00;;;23.70;59.60;;;;;;6261231;28;20021;-72
2021/09/14 15:15:22;;;;;;;4.43;1.23;;;23.70;59.50;;;;;;6269099;28;20036;-72
2021/09/14 15:18:24;;;;;;;2.67;1.15;;;23.70;59.50;;;;;;6270289;28;20112;-71
2021/09/14 15:21:24;;;;;;;4.28;1.10;;;23.70;59.50;;;;;;6273158;28;20025;-71
2021/09/14 15:24:25;;;;;;;2.90;1.02;;;23.70;59.50;;;;;;6269019;28;20027;-76
2021/09/14 15:27:26;;;;;;;1.90;1.00;;;23.70;59.40;;;;;;6253026;28;20017;-71
2021/09/14 15:30:43;;;;;;;1.90;1.05;;;23.70;59.40;;;;;;6252460;28;20094;-71
2021/09/14 15:33:44;;;;;;;1.75;1.20;;;23.70;59.40;;;;;;6270767;28;20109;-71
2021/09/14 15:36:46;;;;;;;1.85;1.02;;;23.70;59.40;;;;;;6270348;28;20029;-70
2021/09/14 15:39:47;;;;;;;1.65;1.00;;;23.70;59.30;;;;;;6268322;28;20382;-71
2021/09/14 15:42:47;;;;;;;2.00;1.10;;;23.70;59.30;;;;;;6270059;28;20029;-71
2021/09/14 15:45:48;;;;;;;1.98;1.10;;;23.70;59.30;;;;;;6245617;28;20071;-72
2021/09/14 15:48:49;;;;;;;1.83;1.20;;;23.70;59.20;;;;;;6252995;28;20452;-71
2021/09/14 15:51:50;;;;;;;1.60;1.20;;;23.70;59.20;;;;;;6269045;28;20361;-71
2021/09/14 15:54:50;;;;;;;4.43;1.30;;;23.70;59.20;;;;;;6247415;28;20027;-71
2021/09/14 15:57:51;;;;;;;2.72;1.63;;;23.70;59.10;;;;;;6269878;28;20386;-71
2021/09/14 16:00:53;;;;;;;3.22;1.20;;;23.70;59.00;;;;;;6269626;28;20025;-71
2021/09/14 16:03:55;;;;;;;3.33;1.42;;;23.70;59.30;;;;;;6269342;28;20466;-71
2021/09/14 16:06:57;;;;;;;1.80;1.30;;;23.70;59.30;;;;;;6270046;28;20025;-71
2021/09/14 16:09:58;;;;;;;2.65;1.25;;;23.70;59.30;;;;;;6269212;28;20216;-71
2021/09/14 16:12:58;;;;;;;4.05;1.60;;;23.70;59.20;;;;;;6251013;28;20326;-71
2021/09/14 16:15:59;;;;;;;2.67;1.38;;;23.70;59.10;;;;;;6266308;28;20108;-71
2021/09/14 16:19:00;;;;;;;2.33;1.38;;;23.70;59.10;;;;;;6249870;28;20389;-71
2021/09/14 16:22:01;;;;;;;4.47;1.55;;;23.70;59.10;;;;;;6250036;28;20116;-72
2021/09/14 16:25:04;;;;;;;2.10;1.40;;;23.70;59.10;;;;;;6267939;28;20036;-71
2021/09/14 16:28:06;;;;;;;4.57;1.60;;;23.70;59.00;;;;;;6248858;28;20024;-70
2021/09/14 16:31:07;;;;;;;3.88;1.25;;;23.70;58.70;;;;;;6247160;28;20065;-70
2021/09/14 16:34:08;;;;;;;3.47;1.33;;;23.70;59.10;;;;;;6268982;28;20083;-69
2021/09/14 16:37:08;;;;;;;2.33;1.27;;;23.70;59.10;;;;;;6253741;28;20059;-69